Raleigh County Memorial Information

FAA: BKW - ICAO: KBKW

Raleigh County Memorial (Airport) Location

State West Virginia
County Raleigh
City Beckley
Raleigh County Memorial (Airport) is 3 miles east of Beckley, WV.
Latitude 37-47-14.4000N
Longitude 081-07-27.0000W
Elevation 2,503ft

Raleigh County Memorial METARs

METAR KBKW 182251Z AUTO 29005KT 10SM CLR 12/04 A3016 RMK AO2 SLP215 T01220039 TSNO
Altimeter 30.16"
Temperature 12.2°C (54.0°F)
Wind 290° at 5KT
Clouds Skies are clear.
Visibility 10.0mi
Time observed: 2021-10-18T22:51:00Z

Raleigh County Memorial (Airport) Details

Status Operational
Activation September 1952
Ownership Public
Usage Public
Chart CINCINNATI
ATC on-site No
Beacon schedule sunset-sunrise
Beacon color clear green

Raleigh County Memorial (Airport) Contacts

Owner RALEIGH COUNTY ARPT AUTH
Owner address 176 AIRPORT CIRCLE RM 105, BEAVER, WV 25813
Owner phone 304-255-0476
Manager GERALD GOLLEHON
Manager address 38436 GOLLEHON RD N., WILBUR, WA 99185
Manager phone 509-647-2859

Raleigh County Memorial Radio Frequencies

Raleigh County Memorial (Airport) Radio Frequencies

UNICOM 123
Common traffic advisory frequency (CTAF) 123